sensor_id;sensor_type;location;lat;lon;timestamp;pressure;altitude;pressure_sealevel;temperature
38114;BMP180;23926;53.222;6.354;2023-11-21T00:01:15;100779.00;;;13.70
38114;BMP180;23926;53.222;6.354;2023-11-21T00:03:40;100787.00;;;13.80
38114;BMP180;23926;53.222;6.354;2023-11-21T00:06:06;100782.00;;;13.80
38114;BMP180;23926;53.222;6.354;2023-11-21T00:08:34;100788.00;;;13.80
38114;BMP180;23926;53.222;6.354;2023-11-21T00:11:00;100786.00;;;13.80
38114;BMP180;23926;53.222;6.354;2023-11-21T00:13:26;100776.00;;;13.80
38114;BMP180;23926;53.222;6.354;2023-11-21T00:15:51;100780.00;;;13.80
38114;BMP180;23926;53.222;6.354;2023-11-21T00:18:16;100787.00;;;13.80
38114;BMP180;23926;53.222;6.354;2023-11-21T00:20:42;100784.00;;;13.80
38114;BMP180;23926;53.222;6.354;2023-11-21T00:23:07;100789.00;;;13.80
38114;BMP180;23926;53.222;6.354;2023-11-21T00:25:34;100782.00;;;13.80
38114;BMP180;23926;53.222;6.354;2023-11-21T00:28:00;100777.00;;;13.90
38114;BMP180;23926;53.222;6.354;2023-11-21T00:30:27;100772.00;;;13.80
38114;BMP180;23926;53.222;6.354;2023-11-21T00:32:54;100775.00;;;13.90
38114;BMP180;23926;53.222;6.354;2023-11-21T00:35:19;100778.00;;;13.80
38114;BMP180;23926;53.222;6.354;2023-11-21T00:37:45;100780.00;;;13.90
38114;BMP180;23926;53.222;6.354;2023-11-21T00:40:11;100787.00;;;13.80
38114;BMP180;23926;53.222;6.354;2023-11-21T00:42:36;100790.00;;;13.90
38114;BMP180;23926;53.222;6.354;2023-11-21T00:45:02;100788.00;;;13.90
38114;BMP180;23926;53.222;6.354;2023-11-21T00:47:28;100784.00;;;13.90
38114;BMP180;23926;53.222;6.354;2023-11-21T00:49:54;100784.00;;;13.90
38114;BMP180;23926;53.222;6.354;2023-11-21T00:52:19;100796.00;;;13.90
38114;BMP180;23926;53.222;6.354;2023-11-21T00:54:45;100801.00;;;13.80
38114;BMP180;23926;53.222;6.354;2023-11-21T00:57:10;100804.00;;;13.80
38114;BMP180;23926;53.222;6.354;2023-11-21T00:59:37;100807.00;;;13.80
38114;BMP180;23926;53.222;6.354;2023-11-21T01:02:02;100810.00;;;13.80
38114;BMP180;23926;53.222;6.354;2023-11-21T01:04:30;100806.00;;;13.80
38114;BMP180;23926;53.222;6.354;2023-11-21T01:06:57;100808.00;;;13.80
38114;BMP180;23926;53.222;6.354;2023-11-21T01:09:22;100816.00;;;13.80
38114;BMP180;23926;53.222;6.354;2023-11-21T01:11:48;100817.00;;;13.90
38114;BMP180;23926;53.222;6.354;2023-11-21T01:14:13;100817.00;;;13.80
38114;BMP180;23926;53.222;6.354;2023-11-21T01:16:39;100814.00;;;13.80
38114;BMP180;23926;53.222;6.354;2023-11-21T01:19:04;100826.00;;;13.80
38114;BMP180;23926;53.222;6.354;2023-11-21T01:21:30;100833.00;;;13.80
38114;BMP180;23926;53.222;6.354;2023-11-21T01:23:56;100828.00;;;13.80
38114;BMP180;23926;53.222;6.354;2023-11-21T01:26:21;100843.00;;;13.80
38114;BMP180;23926;53.222;6.354;2023-11-21T01:28:47;100852.00;;;13.70
38114;BMP180;23926;53.222;6.354;2023-11-21T01:31:14;100834.00;;;13.80
38114;BMP180;23926;53.222;6.354;2023-11-21T01:33:40;100846.00;;;13.80
38114;BMP180;23926;53.222;6.354;2023-11-21T01:36:05;100848.00;;;13.90
38114;BMP180;23926;53.222;6.354;2023-11-21T01:38:31;100854.00;;;13.80
38114;BMP180;23926;53.222;6.354;2023-11-21T01:40:57;100858.00;;;13.90
38114;BMP180;23926;53.222;6.354;2023-11-21T01:43:22;100854.00;;;13.90
38114;BMP180;23926;53.222;6.354;2023-11-21T01:45:48;100858.00;;;14.00
38114;BMP180;23926;53.222;6.354;2023-11-21T01:48:14;100861.00;;;14.10
38114;BMP180;23926;53.222;6.354;2023-11-21T01:50:42;100863.00;;;14.10
38114;BMP180;23926;53.222;6.354;2023-11-21T01:53:07;100856.00;;;14.20
38114;BMP180;23926;53.222;6.354;2023-11-21T01:55:33;100857.00;;;14.20
38114;BMP180;23926;53.222;6.354;2023-11-21T01:58:00;100873.00;;;14.30
38114;BMP180;23926;53.222;6.354;2023-11-21T02:00:26;100866.00;;;14.30
38114;BMP180;23926;53.222;6.354;2023-11-21T02:02:53;100876.00;;;14.40
38114;BMP180;23926;53.222;6.354;2023-11-21T02:05:19;100882.00;;;14.30
38114;BMP180;23926;53.222;6.354;2023-11-21T02:07:45;100880.00;;;14.30
38114;BMP180;23926;53.222;6.354;2023-11-21T02:10:14;100891.00;;;14.40
38114;BMP180;23926;53.222;6.354;2023-11-21T02:12:41;100904.00;;;14.40
38114;BMP180;23926;53.222;6.354;2023-11-21T02:15:08;100896.00;;;14.40
38114;BMP180;23926;53.222;6.354;2023-11-21T02:17:41;100915.00;;;14.40
38114;BMP180;23926;53.222;6.354;2023-11-21T02:20:08;100920.00;;;14.50
38114;BMP180;23926;53.222;6.354;2023-11-21T02:22:39;100921.00;;;14.50
38114;BMP180;23926;53.222;6.354;2023-11-21T02:25:05;100925.00;;;14.50
38114;BMP180;23926;53.222;6.354;2023-11-21T02:27:32;100927.00;;;14.50
38114;BMP180;23926;53.222;6.354;2023-11-21T02:29:58;100943.00;;;14.50
38114;BMP180;23926;53.222;6.354;2023-11-21T02:32:25;100932.00;;;14.50
38114;BMP180;23926;53.222;6.354;2023-11-21T02:34:51;100934.00;;;14.50
38114;BMP180;23926;53.222;6.354;2023-11-21T02:37:16;100920.00;;;14.50
38114;BMP180;23926;53.222;6.354;2023-11-21T02:39:42;100920.00;;;14.50
38114;BMP180;23926;53.222;6.354;2023-11-21T02:42:07;100927.00;;;14.50
38114;BMP180;23926;53.222;6.354;2023-11-21T02:44:33;100933.00;;;14.50
38114;BMP180;23926;53.222;6.354;2023-11-21T02:46:58;100933.00;;;14.60
38114;BMP180;23926;53.222;6.354;2023-11-21T02:49:25;100940.00;;;14.60
38114;BMP180;23926;53.222;6.354;2023-11-21T02:51:54;100940.00;;;14.60
38114;BMP180;23926;53.222;6.354;2023-11-21T02:54:20;100936.00;;;14.60
38114;BMP180;23926;53.222;6.354;2023-11-21T02:56:47;100942.00;;;14.60
38114;BMP180;23926;53.222;6.354;2023-11-21T02:59:12;100946.00;;;14.60
38114;BMP180;23926;53.222;6.354;2023-11-21T03:01:38;100951.00;;;14.40
38114;BMP180;23926;53.222;6.354;2023-11-21T03:04:04;100954.00;;;14.40
38114;BMP180;23926;53.222;6.354;2023-11-21T03:06:29;100964.00;;;14.40
38114;BMP180;23926;53.222;6.354;2023-11-21T03:08:54;100960.00;;;14.40
38114;BMP180;23926;53.222;6.354;2023-11-21T03:11:20;100970.00;;;14.40
38114;BMP180;23926;53.222;6.354;2023-11-21T03:13:45;100973.00;;;14.50
38114;BMP180;23926;53.222;6.354;2023-11-21T03:16:11;100977.00;;;14.40
38114;BMP180;23926;53.222;6.354;2023-11-21T03:18:38;100966.00;;;14.40
38114;BMP180;23926;53.222;6.354;2023-11-21T03:21:07;100970.00;;;14.30
38114;BMP180;23926;53.222;6.354;2023-11-21T03:23:35;100981.00;;;14.20
38114;BMP180;23926;53.222;6.354;2023-11-21T03:26:02;100979.00;;;14.20
38114;BMP180;23926;53.222;6.354;2023-11-21T03:28:28;100976.00;;;14.30
38114;BMP180;23926;53.222;6.354;2023-11-21T03:30:54;100985.00;;;14.40
38114;BMP180;23926;53.222;6.354;2023-11-21T03:33:19;100978.00;;;14.40
38114;BMP180;23926;53.222;6.354;2023-11-21T03:35:45;100978.00;;;14.50
38114;BMP180;23926;53.222;6.354;2023-11-21T03:38:10;100979.00;;;14.40
38114;BMP180;23926;53.222;6.354;2023-11-21T03:40:36;100992.00;;;14.30
38114;BMP180;23926;53.222;6.354;2023-11-21T03:43:01;100989.00;;;14.30
38114;BMP180;23926;53.222;6.354;2023-11-21T03:45:27;100990.00;;;14.20
38114;BMP180;23926;53.222;6.354;2023-11-21T03:47:52;100995.00;;;14.20
38114;BMP180;23926;53.222;6.354;2023-11-21T03:50:17;100998.00;;;14.30
38114;BMP180;23926;53.222;6.354;2023-11-21T03:52:43;101003.00;;;14.30
38114;BMP180;23926;53.222;6.354;2023-11-21T03:55:08;101009.00;;;14.20
38114;BMP180;23926;53.222;6.354;2023-11-21T03:57:34;101016.00;;;14.10
38114;BMP180;23926;53.222;6.354;2023-11-21T03:59:59;101013.00;;;14.10
38114;BMP180;23926;53.222;6.354;2023-11-21T04:02:24;101022.00;;;14.10
38114;BMP180;23926;53.222;6.354;2023-11-21T04:04:53;101032.00;;;14.00
38114;BMP180;23926;53.222;6.354;2023-11-21T04:07:18;101042.00;;;14.00
38114;BMP180;23926;53.222;6.354;2023-11-21T04:09:44;101042.00;;;14.10
38114;BMP180;23926;53.222;6.354;2023-11-21T04:12:09;101049.00;;;14.10
38114;BMP180;23926;53.222;6.354;2023-11-21T04:14:35;101052.00;;;14.00
38114;BMP180;23926;53.222;6.354;2023-11-21T04:17:01;101054.00;;;14.00
38114;BMP180;23926;53.222;6.354;2023-11-21T04:19:26;101058.00;;;14.10
38114;BMP180;23926;53.222;6.354;2023-11-21T04:21:52;101063.00;;;14.10
38114;BMP180;23926;53.222;6.354;2023-11-21T04:24:17;101063.00;;;14.00
38114;BMP180;23926;53.222;6.354;2023-11-21T04:26:43;101076.00;;;14.00
38114;BMP180;23926;53.222;6.354;2023-11-21T04:29:09;101082.00;;;14.10
38114;BMP180;23926;53.222;6.354;2023-11-21T04:31:34;101088.00;;;14.00
38114;BMP180;23926;53.222;6.354;2023-11-21T04:34:00;101093.00;;;13.90
38114;BMP180;23926;53.222;6.354;2023-11-21T04:36:25;101101.00;;;13.90
38114;BMP180;23926;53.222;6.354;2023-11-21T04:38:50;101112.00;;;13.90
38114;BMP180;23926;53.222;6.354;2023-11-21T04:41:16;101114.00;;;13.80
38114;BMP180;23926;53.222;6.354;2023-11-21T04:43:41;101115.00;;;13.90
38114;BMP180;23926;53.222;6.354;2023-11-21T04:46:07;101121.00;;;13.90
38114;BMP180;23926;53.222;6.354;2023-11-21T04:48:33;101132.00;;;13.90
38114;BMP180;23926;53.222;6.354;2023-11-21T04:50:58;101128.00;;;13.80
38114;BMP180;23926;53.222;6.354;2023-11-21T04:53:23;101136.00;;;13.70
38114;BMP180;23926;53.222;6.354;2023-11-21T04:55:49;101135.00;;;13.60
38114;BMP180;23926;53.222;6.354;2023-11-21T04:58:14;101149.00;;;13.70
38114;BMP180;23926;53.222;6.354;2023-11-21T05:00:40;101145.00;;;13.60
38114;BMP180;23926;53.222;6.354;2023-11-21T05:03:06;101157.00;;;13.60
38114;BMP180;23926;53.222;6.354;2023-11-21T05:05:32;101167.00;;;13.60
38114;BMP180;23926;53.222;6.354;2023-11-21T05:07:59;101176.00;;;13.50
38114;BMP180;23926;53.222;6.354;2023-11-21T05:10:24;101175.00;;;13.50
38114;BMP180;23926;53.222;6.354;2023-11-21T05:12:50;101182.00;;;13.40
38114;BMP180;23926;53.222;6.354;2023-11-21T05:15:16;101182.00;;;13.50
38114;BMP180;23926;53.222;6.354;2023-11-21T05:17:43;101185.00;;;13.50
38114;BMP180;23926;53.222;6.354;2023-11-21T05:20:13;101196.00;;;13.50
38114;BMP180;23926;53.222;6.354;2023-11-21T05:22:43;101200.00;;;13.50
38114;BMP180;23926;53.222;6.354;2023-11-21T05:25:08;101198.00;;;13.40
38114;BMP180;23926;53.222;6.354;2023-11-21T05:27:34;101220.00;;;13.40
38114;BMP180;23926;53.222;6.354;2023-11-21T05:30:05;101215.00;;;13.40
38114;BMP180;23926;53.222;6.354;2023-11-21T05:32:31;101220.00;;;13.40
38114;BMP180;23926;53.222;6.354;2023-11-21T05:34:57;101227.00;;;13.40
38114;BMP180;23926;53.222;6.354;2023-11-21T05:37:22;101225.00;;;13.40
38114;BMP180;23926;53.222;6.354;2023-11-21T05:39:49;101236.00;;;13.30
38114;BMP180;23926;53.222;6.354;2023-11-21T05:42:14;101239.00;;;13.40
38114;BMP180;23926;53.222;6.354;2023-11-21T05:44:41;101249.00;;;13.40
38114;BMP180;23926;53.222;6.354;2023-11-21T05:47:08;101253.00;;;13.40
38114;BMP180;23926;53.222;6.354;2023-11-21T05:49:33;101255.00;;;13.40
38114;BMP180;23926;53.222;6.354;2023-11-21T05:51:59;101265.00;;;13.40
38114;BMP180;23926;53.222;6.354;2023-11-21T05:54:25;101265.00;;;13.40
38114;BMP180;23926;53.222;6.354;2023-11-21T05:56:51;101262.00;;;13.40
38114;BMP180;23926;53.222;6.354;2023-11-21T05:59:17;101273.00;;;13.40
38114;BMP180;23926;53.222;6.354;2023-11-21T06:01:42;101274.00;;;13.40
38114;BMP180;23926;53.222;6.354;2023-11-21T06:04:07;101280.00;;;13.30
38114;BMP180;23926;53.222;6.354;2023-11-21T06:06:36;101275.00;;;13.30
38114;BMP180;23926;53.222;6.354;2023-11-21T06:09:01;101284.00;;;13.30
38114;BMP180;23926;53.222;6.354;2023-11-21T06:11:27;101284.00;;;13.20
38114;BMP180;23926;53.222;6.354;2023-11-21T06:13:52;101291.00;;;13.10
38114;BMP180;23926;53.222;6.354;2023-11-21T06:16:21;101294.00;;;13.00
38114;BMP180;23926;53.222;6.354;2023-11-21T06:18:46;101295.00;;;13.00
38114;BMP180;23926;53.222;6.354;2023-11-21T06:21:12;101302.00;;;12.80
38114;BMP180;23926;53.222;6.354;2023-11-21T06:23:37;101310.00;;;12.70
38114;BMP180;23926;53.222;6.354;2023-11-21T06:26:03;101310.00;;;12.80
38114;BMP180;23926;53.222;6.354;2023-11-21T06:28:30;101312.00;;;12.90
38114;BMP180;23926;53.222;6.354;2023-11-21T06:30:56;101315.00;;;12.80
38114;BMP180;23926;53.222;6.354;2023-11-21T06:33:23;101309.00;;;12.60
38114;BMP180;23926;53.222;6.354;2023-11-21T06:35:52;101323.00;;;12.50
38114;BMP180;23926;53.222;6.354;2023-11-21T06:38:18;101318.00;;;12.70
38114;BMP180;23926;53.222;6.354;2023-11-21T06:40:43;101334.00;;;12.70
38114;BMP180;23926;53.222;6.354;2023-11-21T06:43:10;101342.00;;;12.80
38114;BMP180;23926;53.222;6.354;2023-11-21T06:45:37;101341.00;;;12.80
38114;BMP180;23926;53.222;6.354;2023-11-21T06:48:02;101337.00;;;12.80
38114;BMP180;23926;53.222;6.354;2023-11-21T06:50:28;101343.00;;;12.80
38114;BMP180;23926;53.222;6.354;2023-11-21T06:52:53;101348.00;;;12.80
38114;BMP180;23926;53.222;6.354;2023-11-21T06:55:18;101356.00;;;12.90
38114;BMP180;23926;53.222;6.354;2023-11-21T06:57:44;101358.00;;;12.80
38114;BMP180;23926;53.222;6.354;2023-11-21T07:00:10;101374.00;;;12.80
38114;BMP180;23926;53.222;6.354;2023-11-21T07:02:36;101376.00;;;12.90
38114;BMP180;23926;53.222;6.354;2023-11-21T07:05:02;101381.00;;;13.00
38114;BMP180;23926;53.222;6.354;2023-11-21T07:07:27;101384.00;;;12.90
38114;BMP180;23926;53.222;6.354;2023-11-21T07:09:53;101397.00;;;12.90
38114;BMP180;23926;53.222;6.354;2023-11-21T07:12:18;101398.00;;;12.90
38114;BMP180;23926;53.222;6.354;2023-11-21T07:14:44;101402.00;;;13.00
38114;BMP180;23926;53.222;6.354;2023-11-21T07:17:11;101407.00;;;13.00
38114;BMP180;23926;53.222;6.354;2023-11-21T07:19:37;101411.00;;;13.00
38114;BMP180;23926;53.222;6.354;2023-11-21T07:22:03;101415.00;;;13.00
38114;BMP180;23926;53.222;6.354;2023-11-21T07:24:29;101421.00;;;13.00
38114;BMP180;23926;53.222;6.354;2023-11-21T07:26:57;101431.00;;;13.00
38114;BMP180;23926;53.222;6.354;2023-11-21T07:29:23;101429.00;;;12.80
38114;BMP180;23926;53.222;6.354;2023-11-21T07:31:52;101434.00;;;13.00
38114;BMP180;23926;53.222;6.354;2023-11-21T07:34:17;101433.00;;;13.00
38114;BMP180;23926;53.222;6.354;2023-11-21T07:36:42;101447.00;;;12.90
38114;BMP180;23926;53.222;6.354;2023-11-21T07:39:08;101455.00;;;12.80
38114;BMP180;23926;53.222;6.354;2023-11-21T07:41:33;101464.00;;;12.70
38114;BMP180;23926;53.222;6.354;2023-11-21T07:43:59;101462.00;;;12.70
38114;BMP180;23926;53.222;6.354;2023-11-21T07:46:24;101463.00;;;12.70
38114;BMP180;23926;53.222;6.354;2023-11-21T07:48:51;101474.00;;;12.70
38114;BMP180;23926;53.222;6.354;2023-11-21T07:51:17;101481.00;;;12.80
38114;BMP180;23926;53.222;6.354;2023-11-21T07:53:42;101484.00;;;12.80
38114;BMP180;23926;53.222;6.354;2023-11-21T07:56:08;101494.00;;;12.60
38114;BMP180;23926;53.222;6.354;2023-11-21T07:58:37;101488.00;;;12.70
38114;BMP180;23926;53.222;6.354;2023-11-21T08:01:03;101509.00;;;12.60
38114;BMP180;23926;53.222;6.354;2023-11-21T08:03:29;101516.00;;;12.60
38114;BMP180;23926;53.222;6.354;2023-11-21T08:05:58;101508.00;;;12.50
38114;BMP180;23926;53.222;6.354;2023-11-21T08:08:24;101507.00;;;12.40
38114;BMP180;23926;53.222;6.354;2023-11-21T08:10:49;101510.00;;;12.50
38114;BMP180;23926;53.222;6.354;2023-11-21T08:13:30;101521.00;;;12.40
38114;BMP180;23926;53.222;6.354;2023-11-21T08:15:57;101525.00;;;12.40
38114;BMP180;23926;53.222;6.354;2023-11-21T08:18:30;101534.00;;;12.30
38114;BMP180;23926;53.222;6.354;2023-11-21T08:20:55;101526.00;;;12.30
38114;BMP180;23926;53.222;6.354;2023-11-21T08:23:21;101540.00;;;12.40
38114;BMP180;23926;53.222;6.354;2023-11-21T08:25:51;101540.00;;;12.30
38114;BMP180;23926;53.222;6.354;2023-11-21T08:28:17;101555.00;;;12.40
38114;BMP180;23926;53.222;6.354;2023-11-21T08:30:42;101551.00;;;12.40
38114;BMP180;23926;53.222;6.354;2023-11-21T08:33:08;101540.00;;;12.30
38114;BMP180;23926;53.222;6.354;2023-11-21T08:35:34;101555.00;;;12.30
38114;BMP180;23926;53.222;6.354;2023-11-21T08:38:00;101556.00;;;12.30
38114;BMP180;23926;53.222;6.354;2023-11-21T08:40:25;101566.00;;;12.30
38114;BMP180;23926;53.222;6.354;2023-11-21T08:42:51;101569.00;;;12.50
38114;BMP180;23926;53.222;6.354;2023-11-21T08:45:18;101576.00;;;12.50
38114;BMP180;23926;53.222;6.354;2023-11-21T08:47:44;101580.00;;;12.50
38114;BMP180;23926;53.222;6.354;2023-11-21T08:50:10;101585.00;;;12.60
38114;BMP180;23926;53.222;6.354;2023-11-21T08:52:37;101584.00;;;12.60
38114;BMP180;23926;53.222;6.354;2023-11-21T08:55:04;101590.00;;;12.70
38114;BMP180;23926;53.222;6.354;2023-11-21T08:57:36;101598.00;;;12.70
38114;BMP180;23926;53.222;6.354;2023-11-21T09:00:06;101595.00;;;12.70
38114;BMP180;23926;53.222;6.354;2023-11-21T09:02:33;101596.00;;;12.80
38114;BMP180;23926;53.222;6.354;2023-11-21T09:05:00;101604.00;;;12.90
38114;BMP180;23926;53.222;6.354;2023-11-21T09:07:28;101608.00;;;12.90
38114;BMP180;23926;53.222;6.354;2023-11-21T09:09:54;101596.00;;;12.90
38114;BMP180;23926;53.222;6.354;2023-11-21T09:12:20;101601.00;;;13.00
38114;BMP180;23926;53.222;6.354;2023-11-21T09:14:46;101614.00;;;13.00
38114;BMP180;23926;53.222;6.354;2023-11-21T09:17:11;101615.00;;;13.00
38114;BMP180;23926;53.222;6.354;2023-11-21T09:19:37;101631.00;;;13.00
38114;BMP180;23926;53.222;6.354;2023-11-21T09:22:03;101625.00;;;13.10
38114;BMP180;23926;53.222;6.354;2023-11-21T09:24:30;101636.00;;;13.10
38114;BMP180;23926;53.222;6.354;2023-11-21T09:26:56;101637.00;;;13.00
38114;BMP180;23926;53.222;6.354;2023-11-21T09:29:21;101645.00;;;13.10
38114;BMP180;23926;53.222;6.354;2023-11-21T09:31:47;101658.00;;;13.20
38114;BMP180;23926;53.222;6.354;2023-11-21T09:34:13;101665.00;;;13.30
38114;BMP180;23926;53.222;6.354;2023-11-21T09:36:40;101659.00;;;13.20
38114;BMP180;23926;53.222;6.354;2023-11-21T09:39:06;101668.00;;;13.10
38114;BMP180;23926;53.222;6.354;2023-11-21T09:41:40;101673.00;;;13.00
38114;BMP180;23926;53.222;6.354;2023-11-21T09:44:13;101668.00;;;12.90
38114;BMP180;23926;53.222;6.354;2023-11-21T09:46:41;101682.00;;;12.90
38114;BMP180;23926;53.222;6.354;2023-11-21T09:49:09;101682.00;;;12.70
38114;BMP180;23926;53.222;6.354;2023-11-21T09:51:39;101691.00;;;12.60
38114;BMP180;23926;53.222;6.354;2023-11-21T09:54:07;101689.00;;;12.50
38114;BMP180;23926;53.222;6.354;2023-11-21T09:56:34;101696.00;;;12.40
38114;BMP180;23926;53.222;6.354;2023-11-21T09:59:01;101713.00;;;12.40
38114;BMP180;23926;53.222;6.354;2023-11-21T10:01:32;101717.00;;;12.30
38114;BMP180;23926;53.222;6.354;2023-11-21T10:03:58;101717.00;;;12.30
38114;BMP180;23926;53.222;6.354;2023-11-21T10:06:25;101732.00;;;12.30
38114;BMP180;23926;53.222;6.354;2023-11-21T10:08:53;101711.00;;;12.40
38114;BMP180;23926;53.222;6.354;2023-11-21T10:11:19;101718.00;;;12.20
38114;BMP180;23926;53.222;6.354;2023-11-21T10:13:47;101727.00;;;12.30
38114;BMP180;23926;53.222;6.354;2023-11-21T10:16:15;101732.00;;;12.40
38114;BMP180;23926;53.222;6.354;2023-11-21T10:18:48;101735.00;;;12.50
38114;BMP180;23926;53.222;6.354;2023-11-21T10:21:14;101746.00;;;12.60
38114;BMP180;23926;53.222;6.354;2023-11-21T10:23:40;101746.00;;;12.70
38114;BMP180;23926;53.222;6.354;2023-11-21T10:26:11;101747.00;;;12.80
38114;BMP180;23926;53.222;6.354;2023-11-21T10:28:54;101747.00;;;13.00
38114;BMP180;23926;53.222;6.354;2023-11-21T10:31:20;101757.00;;;13.00
38114;BMP180;23926;53.222;6.354;2023-11-21T10:33:46;101757.00;;;13.10
38114;BMP180;23926;53.222;6.354;2023-11-21T10:36:11;101769.00;;;13.00
38114;BMP180;23926;53.222;6.354;2023-11-21T10:38:42;101778.00;;;13.20
38114;BMP180;23926;53.222;6.354;2023-11-21T10:41:11;101767.00;;;13.30
38114;BMP180;23926;53.222;6.354;2023-11-21T10:43:38;101776.00;;;13.10
38114;BMP180;23926;53.222;6.354;2023-11-21T10:46:04;101779.00;;;13.20
38114;BMP180;23926;53.222;6.354;2023-11-21T10:48:31;101775.00;;;13.10
38114;BMP180;23926;53.222;6.354;2023-11-21T10:50:57;101772.00;;;12.90
38114;BMP180;23926;53.222;6.354;2023-11-21T10:53:22;101774.00;;;12.90
38114;BMP180;23926;53.222;6.354;2023-11-21T10:55:49;101774.00;;;12.80
38114;BMP180;23926;53.222;6.354;2023-11-21T10:58:14;101772.00;;;12.90
38114;BMP180;23926;53.222;6.354;2023-11-21T11:00:40;101771.00;;;12.70
38114;BMP180;23926;53.222;6.354;2023-11-21T11:03:06;101781.00;;;12.70
38114;BMP180;23926;53.222;6.354;2023-11-21T11:05:38;101786.00;;;12.70
38114;BMP180;23926;53.222;6.354;2023-11-21T11:08:05;101790.00;;;12.60
38114;BMP180;23926;53.222;6.354;2023-11-21T11:10:31;101793.00;;;12.60
38114;BMP180;23926;53.222;6.354;2023-11-21T11:12:58;101796.00;;;12.40
38114;BMP180;23926;53.222;6.354;2023-11-21T11:15:25;101803.00;;;12.30
38114;BMP180;23926;53.222;6.354;2023-11-21T11:17:51;101812.00;;;12.20
38114;BMP180;23926;53.222;6.354;2023-11-21T11:20:17;101811.00;;;12.20
38114;BMP180;23926;53.222;6.354;2023-11-21T11:28:07;101831.00;;;12.20
38114;BMP180;23926;53.222;6.354;2023-11-21T11:34:47;101832.00;;;12.00
38114;BMP180;23926;53.222;6.354;2023-11-21T11:37:07;101836.00;;;12.00
38114;BMP180;23926;53.222;6.354;2023-11-21T11:39:39;101831.00;;;12.20
38114;BMP180;23926;53.222;6.354;2023-11-21T11:42:08;101824.00;;;12.50
38114;BMP180;23926;53.222;6.354;2023-11-21T11:47:35;101842.00;;;12.60
38114;BMP180;23926;53.222;6.354;2023-11-21T11:50:07;101835.00;;;12.50
38114;BMP180;23926;53.222;6.354;2023-11-21T11:52:38;101833.00;;;12.50
38114;BMP180;23926;53.222;6.354;2023-11-21T11:55:12;101850.00;;;12.60
38114;BMP180;23926;53.222;6.354;2023-11-21T11:57:40;101853.00;;;12.30
38114;BMP180;23926;53.222;6.354;2023-11-21T12:00:19;101858.00;;;12.40
38114;BMP180;23926;53.222;6.354;2023-11-21T12:02:54;101865.00;;;12.50
38114;BMP180;23926;53.222;6.354;2023-11-21T12:05:23;101874.00;;;12.50
38114;BMP180;23926;53.222;6.354;2023-11-21T12:10:19;101883.00;;;12.80
38114;BMP180;23926;53.222;6.354;2023-11-21T12:12:46;101874.00;;;12.90
38114;BMP180;23926;53.222;6.354;2023-11-21T12:15:12;101882.00;;;12.80
38114;BMP180;23926;53.222;6.354;2023-11-21T12:17:39;101884.00;;;12.90
38114;BMP180;23926;53.222;6.354;2023-11-21T12:20:05;101888.00;;;12.90
38114;BMP180;23926;53.222;6.354;2023-11-21T12:22:42;101881.00;;;12.90
38114;BMP180;23926;53.222;6.354;2023-11-21T12:25:08;101881.00;;;12.80
38114;BMP180;23926;53.222;6.354;2023-11-21T12:27:33;101871.00;;;12.80
38114;BMP180;23926;53.222;6.354;2023-11-21T12:29:59;101884.00;;;12.80
38114;BMP180;23926;53.222;6.354;2023-11-21T12:32:24;101877.00;;;12.80
38114;BMP180;23926;53.222;6.354;2023-11-21T12:34:51;101883.00;;;13.00
38114;BMP180;23926;53.222;6.354;2023-11-21T12:37:16;101882.00;;;13.10
38114;BMP180;23926;53.222;6.354;2023-11-21T12:39:42;101895.00;;;13.20
38114;BMP180;23926;53.222;6.354;2023-11-21T12:42:07;101896.00;;;13.10
38114;BMP180;23926;53.222;6.354;2023-11-21T12:44:34;101897.00;;;12.90
38114;BMP180;23926;53.222;6.354;2023-11-21T12:46:59;101896.00;;;12.90
38114;BMP180;23926;53.222;6.354;2023-11-21T12:49:24;101911.00;;;12.90
38114;BMP180;23926;53.222;6.354;2023-11-21T12:51:50;101903.00;;;12.80
38114;BMP180;23926;53.222;6.354;2023-11-21T12:54:16;101912.00;;;12.70
38114;BMP180;23926;53.222;6.354;2023-11-21T12:56:45;101916.00;;;12.80
38114;BMP180;23926;53.222;6.354;2023-11-21T12:59:12;101921.00;;;13.00
38114;BMP180;23926;53.222;6.354;2023-11-21T13:01:42;101925.00;;;13.20
38114;BMP180;23926;53.222;6.354;2023-11-21T13:04:07;101931.00;;;13.40
38114;BMP180;23926;53.222;6.354;2023-11-21T13:06:36;101937.00;;;13.30
38114;BMP180;23926;53.222;6.354;2023-11-21T13:09:09;101930.00;;;13.20
38114;BMP180;23926;53.222;6.354;2023-11-21T13:11:36;101939.00;;;13.20
38114;BMP180;23926;53.222;6.354;2023-11-21T13:14:02;101932.00;;;13.20
38114;BMP180;23926;53.222;6.354;2023-11-21T13:16:29;101938.00;;;13.20
38114;BMP180;23926;53.222;6.354;2023-11-21T13:18:55;101943.00;;;13.20
38114;BMP180;23926;53.222;6.354;2023-11-21T13:21:21;101939.00;;;13.30
38114;BMP180;23926;53.222;6.354;2023-11-21T13:23:47;101941.00;;;13.20
38114;BMP180;23926;53.222;6.354;2023-11-21T13:26:15;101949.00;;;13.30
38114;BMP180;23926;53.222;6.354;2023-11-21T13:28:41;101946.00;;;13.30
38114;BMP180;23926;53.222;6.354;2023-11-21T13:31:11;101945.00;;;13.20
38114;BMP180;23926;53.222;6.354;2023-11-21T13:33:52;101947.00;;;12.90
38114;BMP180;23926;53.222;6.354;2023-11-21T13:36:24;101956.00;;;13.00
38114;BMP180;23926;53.222;6.354;2023-11-21T13:38:51;101966.00;;;12.90
38114;BMP180;23926;53.222;6.354;2023-11-21T13:41:18;101955.00;;;12.90
38114;BMP180;23926;53.222;6.354;2023-11-21T13:43:44;101984.00;;;12.80
38114;BMP180;23926;53.222;6.354;2023-11-21T13:46:14;101980.00;;;12.80
38114;BMP180;23926;53.222;6.354;2023-11-21T13:48:42;101985.00;;;12.80
38114;BMP180;23926;53.222;6.354;2023-11-21T13:51:12;101981.00;;;12.80
38114;BMP180;23926;53.222;6.354;2023-11-21T13:53:45;101982.00;;;12.80
38114;BMP180;23926;53.222;6.354;2023-11-21T13:56:13;101994.00;;;12.80
38114;BMP180;23926;53.222;6.354;2023-11-21T13:58:43;101995.00;;;12.80
38114;BMP180;23926;53.222;6.354;2023-11-21T14:01:16;101991.00;;;12.70
38114;BMP180;23926;53.222;6.354;2023-11-21T14:04:03;102012.00;;;12.70
38114;BMP180;23926;53.222;6.354;2023-11-21T14:06:48;102016.00;;;12.70
38114;BMP180;23926;53.222;6.354;2023-11-21T14:09:23;102026.00;;;12.60